KBLV/BLV METAR and TAF weather

Enter ICAO airport designator
Station Type Date Time Source
KBLV METAR 2020/10/22 04:16 UTC NOAA

KBLV 220416Z AUTO 00000KT 1/4SM R32R/1800V2000FT FG VV001 14/14 A3007 RMK AO2 CIG 000 RWY14R SLP186 $


Station Type Date Time Source
KBLV Decoded METAR 2020/10/22 04:16 UTC NOAA

Belleville, Scott AFB/MidAmerica Airport, IL, United States (KBLV) 38-33N 089-51W
Oct 22, 2020 - 12:16 AM EDT / 2020.10.22 0416 UTC
Wind: Calm (direction variable):0
Visibility: 1/4 mile(s):0
Sky conditions: obscured
Weather: fog
Temperature: 57 F (14 C)
Dew Point: 57 F (14 C)
Relative Humidity: 100%
Pressure (altimeter): 30.07 in. Hg (1018 hPa)
ob: KBLV 220416Z AUTO 00000KT 1/4SM R32R/1800V2000FT FG VV001 14/14 A3007 RMK AO2 CIG 000 RWY14R SLP186
cycle: 4

Station Type Date Time Source
KBLV TAF 2020/10/22 03:48 UTC NOAA

TAF
AMD KBLV 220317Z 2203/2306 VRB06KT 0400 FG OVC001 QNH3001INS
TEMPO 2203/2208 1600 BR
BECMG 2212/2213 17004KT 9999 NSW FEW010 QNH2997INS
BECMG 2214/2215 18012G18KT 9999 FEW030 QNH2994INS
BECMG 2221/2222 18009KT 9999 SCT030 QNH2992INS
BECMG 2305/2306 18006KT 9999 BKN010 QNH2989INS TX30/2220Z TN10/2209Z

Example: see airport list